sensor_id;sensor_type;location;lat;lon;timestamp;temperature;humidity
48206;DHT22;33995;48.202;16.260;2022-11-15T00:02:10;6.60;99.90
48206;DHT22;33995;48.202;16.260;2022-11-15T00:05:01;6.60;99.90
48206;DHT22;33995;48.202;16.260;2022-11-15T00:07:50;6.70;99.90
48206;DHT22;33995;48.202;16.260;2022-11-15T00:10:43;6.70;99.90
48206;DHT22;33995;48.202;16.260;2022-11-15T00:13:34;6.70;99.90
48206;DHT22;33995;48.202;16.260;2022-11-15T00:16:24;6.70;99.90
48206;DHT22;33995;48.202;16.260;2022-11-15T00:19:13;6.80;99.90
48206;DHT22;33995;48.202;16.260;2022-11-15T00:22:01;6.80;99.90
48206;DHT22;33995;48.202;16.260;2022-11-15T00:24:50;6.80;99.90
48206;DHT22;33995;48.202;16.260;2022-11-15T00:27:38;6.70;99.90
48206;DHT22;33995;48.202;16.260;2022-11-15T00:30:26;6.80;99.90
48206;DHT22;33995;48.202;16.260;2022-11-15T00:33:18;6.70;99.90
48206;DHT22;33995;48.202;16.260;2022-11-15T00:36:08;6.70;99.90
48206;DHT22;33995;48.202;16.260;2022-11-15T00:38:59;6.70;99.90
48206;DHT22;33995;48.202;16.260;2022-11-15T00:41:47;6.70;99.90
48206;DHT22;33995;48.202;16.260;2022-11-15T00:44:35;6.70;99.90
48206;DHT22;33995;48.202;16.260;2022-11-15T00:47:24;6.70;99.90
48206;DHT22;33995;48.202;16.260;2022-11-15T00:50:15;6.70;99.90
48206;DHT22;33995;48.202;16.260;2022-11-15T00:53:03;6.60;99.90
48206;DHT22;33995;48.202;16.260;2022-11-15T00:55:52;6.60;99.90
48206;DHT22;33995;48.202;16.260;2022-11-15T00:58:42;6.60;99.90
48206;DHT22;33995;48.202;16.260;2022-11-15T01:01:34;6.70;99.90
48206;DHT22;33995;48.202;16.260;2022-11-15T01:04:21;6.70;99.90
48206;DHT22;33995;48.202;16.260;2022-11-15T01:07:11;6.60;99.90
48206;DHT22;33995;48.202;16.260;2022-11-15T01:10:00;6.60;99.90
48206;DHT22;33995;48.202;16.260;2022-11-15T01:12:47;6.70;99.90
48206;DHT22;33995;48.202;16.260;2022-11-15T01:15:33;6.70;99.90
48206;DHT22;33995;48.202;16.260;2022-11-15T01:18:23;6.70;99.90
48206;DHT22;33995;48.202;16.260;2022-11-15T01:21:16;6.70;99.90
48206;DHT22;33995;48.202;16.260;2022-11-15T01:24:07;6.70;99.90
48206;DHT22;33995;48.202;16.260;2022-11-15T01:27:07;6.70;99.90
48206;DHT22;33995;48.202;16.260;2022-11-15T01:29:59;6.80;99.90
48206;DHT22;33995;48.202;16.260;2022-11-15T01:32:46;6.80;99.90
48206;DHT22;33995;48.202;16.260;2022-11-15T01:35:37;6.70;99.90
48206;DHT22;33995;48.202;16.260;2022-11-15T01:38:27;6.70;99.90
48206;DHT22;33995;48.202;16.260;2022-11-15T01:41:18;6.70;99.90
48206;DHT22;33995;48.202;16.260;2022-11-15T01:47:25;6.70;99.90
48206;DHT22;33995;48.202;16.260;2022-11-15T01:50:21;6.70;99.90
48206;DHT22;33995;48.202;16.260;2022-11-15T01:53:09;6.80;99.90
48206;DHT22;33995;48.202;16.260;2022-11-15T01:56:03;6.80;99.90
48206;DHT22;33995;48.202;16.260;2022-11-15T01:58:53;6.80;99.90
48206;DHT22;33995;48.202;16.260;2022-11-15T02:01:44;6.80;99.90
48206;DHT22;33995;48.202;16.260;2022-11-15T02:04:51;6.80;99.90
48206;DHT22;33995;48.202;16.260;2022-11-15T02:07:39;6.80;99.90
48206;DHT22;33995;48.202;16.260;2022-11-15T02:10:30;6.80;99.90
48206;DHT22;33995;48.202;16.260;2022-11-15T02:13:18;6.80;99.90
48206;DHT22;33995;48.202;16.260;2022-11-15T02:42:55;6.90;99.90
48206;DHT22;33995;48.202;16.260;2022-11-15T02:49:00;6.80;99.90
48206;DHT22;33995;48.202;16.260;2022-11-15T02:51:51;6.90;99.90
48206;DHT22;33995;48.202;16.260;2022-11-15T02:54:41;6.80;99.90
48206;DHT22;33995;48.202;16.260;2022-11-15T03:08:14;7.00;99.90
48206;DHT22;33995;48.202;16.260;2022-11-15T03:14:24;7.00;99.90
48206;DHT22;33995;48.202;16.260;2022-11-15T03:17:20;7.00;99.90
48206;DHT22;33995;48.202;16.260;2022-11-15T03:20:13;7.00;99.90
48206;DHT22;33995;48.202;16.260;2022-11-15T03:23:05;7.00;99.90
48206;DHT22;33995;48.202;16.260;2022-11-15T03:25:55;7.00;99.90
48206;DHT22;33995;48.202;16.260;2022-11-15T03:28:56;7.00;99.90
48206;DHT22;33995;48.202;16.260;2022-11-15T03:31:53;7.00;99.90
48206;DHT22;33995;48.202;16.260;2022-11-15T03:35:09;7.10;99.90
48206;DHT22;33995;48.202;16.260;2022-11-15T03:41:21;7.00;99.90
48206;DHT22;33995;48.202;16.260;2022-11-15T03:47:13;7.10;99.90
48206;DHT22;33995;48.202;16.260;2022-11-15T03:50:08;7.00;99.90
48206;DHT22;33995;48.202;16.260;2022-11-15T03:53:00;7.00;99.90
48206;DHT22;33995;48.202;16.260;2022-11-15T03:55:49;7.00;99.90
48206;DHT22;33995;48.202;16.260;2022-11-15T03:58:37;7.00;99.90
48206;DHT22;33995;48.202;16.260;2022-11-15T04:01:29;6.90;99.90
48206;DHT22;33995;48.202;16.260;2022-11-15T04:04:16;6.90;99.90
48206;DHT22;33995;48.202;16.260;2022-11-15T04:07:07;6.90;99.90
48206;DHT22;33995;48.202;16.260;2022-11-15T04:10:11;7.00;99.90
48206;DHT22;33995;48.202;16.260;2022-11-15T04:13:02;7.00;99.90
48206;DHT22;33995;48.202;16.260;2022-11-15T04:15:48;7.00;99.90
48206;DHT22;33995;48.202;16.260;2022-11-15T04:18:39;6.90;99.90
48206;DHT22;33995;48.202;16.260;2022-11-15T04:21:27;6.80;99.90
48206;DHT22;33995;48.202;16.260;2022-11-15T04:24:35;6.90;99.90
48206;DHT22;33995;48.202;16.260;2022-11-15T04:27:22;6.90;99.90
48206;DHT22;33995;48.202;16.260;2022-11-15T04:30:11;6.80;99.90
48206;DHT22;33995;48.202;16.260;2022-11-15T04:33:00;6.90;99.90
48206;DHT22;33995;48.202;16.260;2022-11-15T04:35:51;6.90;99.90
48206;DHT22;33995;48.202;16.260;2022-11-15T04:38:59;6.90;99.90
48206;DHT22;33995;48.202;16.260;2022-11-15T04:41:47;6.90;99.90
48206;DHT22;33995;48.202;16.260;2022-11-15T04:44:50;6.80;99.90
48206;DHT22;33995;48.202;16.260;2022-11-15T04:47:39;6.90;99.90
48206;DHT22;33995;48.202;16.260;2022-11-15T04:50:26;6.90;99.90
48206;DHT22;33995;48.202;16.260;2022-11-15T04:53:15;6.90;99.90
48206;DHT22;33995;48.202;16.260;2022-11-15T04:56:04;6.90;99.90
48206;DHT22;33995;48.202;16.260;2022-11-15T04:59:01;6.90;99.90
48206;DHT22;33995;48.202;16.260;2022-11-15T05:01:49;6.90;99.90
48206;DHT22;33995;48.202;16.260;2022-11-15T05:04:38;7.00;99.90
48206;DHT22;33995;48.202;16.260;2022-11-15T05:07:25;6.90;99.90
48206;DHT22;33995;48.202;16.260;2022-11-15T05:10:15;6.90;99.90
48206;DHT22;33995;48.202;16.260;2022-11-15T05:13:01;7.00;99.90
48206;DHT22;33995;48.202;16.260;2022-11-15T05:15:50;7.00;99.90
48206;DHT22;33995;48.202;16.260;2022-11-15T05:18:37;6.90;99.90
48206;DHT22;33995;48.202;16.260;2022-11-15T05:21:29;6.90;99.90
48206;DHT22;33995;48.202;16.260;2022-11-15T05:24:17;6.90;99.90
48206;DHT22;33995;48.202;16.260;2022-11-15T05:27:07;6.90;99.90
48206;DHT22;33995;48.202;16.260;2022-11-15T05:30:09;6.90;99.90
48206;DHT22;33995;48.202;16.260;2022-11-15T05:33:01;6.90;99.90
48206;DHT22;33995;48.202;16.260;2022-11-15T05:36:05;6.90;99.90
48206;DHT22;33995;48.202;16.260;2022-11-15T05:38:57;7.00;99.90
48206;DHT22;33995;48.202;16.260;2022-11-15T05:41:48;7.00;99.90
48206;DHT22;33995;48.202;16.260;2022-11-15T05:44:42;7.00;99.90
48206;DHT22;33995;48.202;16.260;2022-11-15T05:47:36;7.00;99.90
48206;DHT22;33995;48.202;16.260;2022-11-15T05:50:26;7.00;99.90
48206;DHT22;33995;48.202;16.260;2022-11-15T05:53:16;7.00;99.90
48206;DHT22;33995;48.202;16.260;2022-11-15T05:56:06;6.90;99.90
48206;DHT22;33995;48.202;16.260;2022-11-15T05:58:56;6.90;99.90
48206;DHT22;33995;48.202;16.260;2022-11-15T06:01:49;7.00;99.90
48206;DHT22;33995;48.202;16.260;2022-11-15T06:04:39;7.00;99.90
48206;DHT22;33995;48.202;16.260;2022-11-15T06:07:28;6.90;99.90
48206;DHT22;33995;48.202;16.260;2022-11-15T06:10:18;6.90;99.90
48206;DHT22;33995;48.202;16.260;2022-11-15T06:13:06;6.90;99.90
48206;DHT22;33995;48.202;16.260;2022-11-15T06:15:56;7.00;99.90
48206;DHT22;33995;48.202;16.260;2022-11-15T06:18:44;7.00;99.90
48206;DHT22;33995;48.202;16.260;2022-11-15T06:21:33;7.00;99.90
48206;DHT22;33995;48.202;16.260;2022-11-15T06:24:27;7.00;99.90
48206;DHT22;33995;48.202;16.260;2022-11-15T06:27:16;7.00;99.90
48206;DHT22;33995;48.202;16.260;2022-11-15T06:30:04;7.00;99.90
48206;DHT22;33995;48.202;16.260;2022-11-15T06:33:02;7.00;99.90
48206;DHT22;33995;48.202;16.260;2022-11-15T06:36:05;7.00;99.90
48206;DHT22;33995;48.202;16.260;2022-11-15T06:38:51;7.00;99.90
48206;DHT22;33995;48.202;16.260;2022-11-15T06:41:40;7.00;99.90
48206;DHT22;33995;48.202;16.260;2022-11-15T06:44:26;7.00;99.90
48206;DHT22;33995;48.202;16.260;2022-11-15T06:47:15;7.10;99.90
48206;DHT22;33995;48.202;16.260;2022-11-15T06:50:03;7.10;99.90
48206;DHT22;33995;48.202;16.260;2022-11-15T06:52:52;7.10;99.90
48206;DHT22;33995;48.202;16.260;2022-11-15T06:55:45;7.10;99.90
48206;DHT22;33995;48.202;16.260;2022-11-15T06:58:40;7.10;99.90
48206;DHT22;33995;48.202;16.260;2022-11-15T07:01:27;7.10;99.90
48206;DHT22;33995;48.202;16.260;2022-11-15T07:04:15;7.20;99.90
48206;DHT22;33995;48.202;16.260;2022-11-15T07:07:05;7.10;99.90
48206;DHT22;33995;48.202;16.260;2022-11-15T07:09:53;7.20;99.90
48206;DHT22;33995;48.202;16.260;2022-11-15T07:12:42;7.20;99.90
48206;DHT22;33995;48.202;16.260;2022-11-15T07:15:33;7.10;99.90
48206;DHT22;33995;48.202;16.260;2022-11-15T07:18:22;7.10;99.90
48206;DHT22;33995;48.202;16.260;2022-11-15T07:21:14;7.10;99.90
48206;DHT22;33995;48.202;16.260;2022-11-15T07:24:05;7.10;99.90
48206;DHT22;33995;48.202;16.260;2022-11-15T07:26:53;7.10;99.90
48206;DHT22;33995;48.202;16.260;2022-11-15T07:29:41;7.10;99.90
48206;DHT22;33995;48.202;16.260;2022-11-15T07:32:30;7.20;99.90
48206;DHT22;33995;48.202;16.260;2022-11-15T07:35:17;7.10;99.90
48206;DHT22;33995;48.202;16.260;2022-11-15T07:38:05;7.20;99.90
48206;DHT22;33995;48.202;16.260;2022-11-15T07:41:01;7.20;99.90
48206;DHT22;33995;48.202;16.260;2022-11-15T07:43:51;7.20;99.90
48206;DHT22;33995;48.202;16.260;2022-11-15T07:46:39;7.30;99.90
48206;DHT22;33995;48.202;16.260;2022-11-15T07:49:27;7.20;99.90
48206;DHT22;33995;48.202;16.260;2022-11-15T07:52:15;7.10;99.90
48206;DHT22;33995;48.202;16.260;2022-11-15T07:55:03;7.20;99.90
48206;DHT22;33995;48.202;16.260;2022-11-15T07:57:51;7.20;99.90
48206;DHT22;33995;48.202;16.260;2022-11-15T08:00:39;7.30;99.90
48206;DHT22;33995;48.202;16.260;2022-11-15T08:03:26;7.30;99.90
48206;DHT22;33995;48.202;16.260;2022-11-15T08:06:14;7.20;99.90
48206;DHT22;33995;48.202;16.260;2022-11-15T08:09:04;7.20;99.90
48206;DHT22;33995;48.202;16.260;2022-11-15T08:11:53;7.20;99.90
48206;DHT22;33995;48.202;16.260;2022-11-15T08:14:43;7.20;99.90
48206;DHT22;33995;48.202;16.260;2022-11-15T08:17:33;7.20;99.90
48206;DHT22;33995;48.202;16.260;2022-11-15T08:20:24;7.20;99.90
48206;DHT22;33995;48.202;16.260;2022-11-15T08:23:12;7.30;99.90
48206;DHT22;33995;48.202;16.260;2022-11-15T08:26:04;7.30;99.90
48206;DHT22;33995;48.202;16.260;2022-11-15T08:28:52;7.30;99.90
48206;DHT22;33995;48.202;16.260;2022-11-15T08:31:40;7.30;99.90
48206;DHT22;33995;48.202;16.260;2022-11-15T08:34:29;7.30;99.90
48206;DHT22;33995;48.202;16.260;2022-11-15T08:37:23;7.30;99.90
48206;DHT22;33995;48.202;16.260;2022-11-15T08:40:13;7.30;99.90
48206;DHT22;33995;48.202;16.260;2022-11-15T08:43:14;7.30;99.90
48206;DHT22;33995;48.202;16.260;2022-11-15T08:46:03;7.30;99.90
48206;DHT22;33995;48.202;16.260;2022-11-15T08:48:54;7.20;99.90
48206;DHT22;33995;48.202;16.260;2022-11-15T08:51:44;7.30;99.90
48206;DHT22;33995;48.202;16.260;2022-11-15T08:54:31;7.30;99.90
48206;DHT22;33995;48.202;16.260;2022-11-15T08:57:19;7.30;99.90
48206;DHT22;33995;48.202;16.260;2022-11-15T09:00:21;7.30;99.90
48206;DHT22;33995;48.202;16.260;2022-11-15T09:03:10;7.30;99.90
48206;DHT22;33995;48.202;16.260;2022-11-15T09:06:00;7.30;99.90
48206;DHT22;33995;48.202;16.260;2022-11-15T09:08:51;7.20;99.90
48206;DHT22;33995;48.202;16.260;2022-11-15T09:11:40;7.20;99.90
48206;DHT22;33995;48.202;16.260;2022-11-15T09:14:30;7.20;99.90
48206;DHT22;33995;48.202;16.260;2022-11-15T09:17:17;7.20;99.90
48206;DHT22;33995;48.202;16.260;2022-11-15T09:20:10;7.40;99.90
48206;DHT22;33995;48.202;16.260;2022-11-15T09:23:01;7.30;99.90
48206;DHT22;33995;48.202;16.260;2022-11-15T09:26:04;7.30;99.90
48206;DHT22;33995;48.202;16.260;2022-11-15T09:28:51;7.30;99.90
48206;DHT22;33995;48.202;16.260;2022-11-15T09:31:39;7.30;99.90
48206;DHT22;33995;48.202;16.260;2022-11-15T09:34:26;7.30;99.90
48206;DHT22;33995;48.202;16.260;2022-11-15T09:37:15;7.40;99.90
48206;DHT22;33995;48.202;16.260;2022-11-15T09:40:13;7.30;99.90
48206;DHT22;33995;48.202;16.260;2022-11-15T09:46:22;7.40;99.90
48206;DHT22;33995;48.202;16.260;2022-11-15T09:49:16;7.40;99.90
48206;DHT22;33995;48.202;16.260;2022-11-15T09:52:04;7.40;99.90
48206;DHT22;33995;48.202;16.260;2022-11-15T09:54:45;7.40;99.90
48206;DHT22;33995;48.202;16.260;2022-11-15T09:57:55;7.50;99.90
48206;DHT22;33995;48.202;16.260;2022-11-15T10:00:47;7.50;99.90
48206;DHT22;33995;48.202;16.260;2022-11-15T10:03:34;7.50;99.90
48206;DHT22;33995;48.202;16.260;2022-11-15T10:06:05;7.50;99.90
48206;DHT22;33995;48.202;16.260;2022-11-15T10:11:27;7.60;99.90
48206;DHT22;33995;48.202;16.260;2022-11-15T10:14:18;7.60;99.90
48206;DHT22;33995;48.202;16.260;2022-11-15T10:22:58;7.60;99.90
48206;DHT22;33995;48.202;16.260;2022-11-15T10:25:32;7.60;99.90
48206;DHT22;33995;48.202;16.260;2022-11-15T10:28:25;7.70;99.90
48206;DHT22;33995;48.202;16.260;2022-11-15T10:30:58;7.70;99.90
48206;DHT22;33995;48.202;16.260;2022-11-15T10:33:40;7.70;99.90
48206;DHT22;33995;48.202;16.260;2022-11-15T10:36:19;7.70;99.90
48206;DHT22;33995;48.202;16.260;2022-11-15T10:38:54;7.70;99.90
48206;DHT22;33995;48.202;16.260;2022-11-15T10:41:32;7.60;99.90
48206;DHT22;33995;48.202;16.260;2022-11-15T10:44:23;7.60;99.90
48206;DHT22;33995;48.202;16.260;2022-11-15T10:49:36;7.70;99.90
48206;DHT22;33995;48.202;16.260;2022-11-15T10:52:18;7.60;99.90
48206;DHT22;33995;48.202;16.260;2022-11-15T10:57:52;7.70;99.90
48206;DHT22;33995;48.202;16.260;2022-11-15T11:00:34;7.70;99.90
48206;DHT22;33995;48.202;16.260;2022-11-15T11:03:37;7.70;99.90
48206;DHT22;33995;48.202;16.260;2022-11-15T11:06:19;7.80;99.90
48206;DHT22;33995;48.202;16.260;2022-11-15T11:09:02;7.80;99.90
48206;DHT22;33995;48.202;16.260;2022-11-15T11:11:50;7.80;99.90
48206;DHT22;33995;48.202;16.260;2022-11-15T11:14:30;7.70;99.90
48206;DHT22;33995;48.202;16.260;2022-11-15T11:17:41;7.80;99.90
48206;DHT22;33995;48.202;16.260;2022-11-15T11:23:34;7.90;99.90
48206;DHT22;33995;48.202;16.260;2022-11-15T11:35:02;7.90;99.90
48206;DHT22;33995;48.202;16.260;2022-11-15T11:41:09;7.90;99.90
48206;DHT22;33995;48.202;16.260;2022-11-15T11:47:03;7.90;99.90
48206;DHT22;33995;48.202;16.260;2022-11-15T11:49:50;7.90;99.90
48206;DHT22;33995;48.202;16.260;2022-11-15T11:52:33;8.00;99.90
48206;DHT22;33995;48.202;16.260;2022-11-15T11:55:20;8.00;99.90
48206;DHT22;33995;48.202;16.260;2022-11-15T12:01:09;7.90;99.90
48206;DHT22;33995;48.202;16.260;2022-11-15T12:07:01;8.10;99.90
48206;DHT22;33995;48.202;16.260;2022-11-15T12:09:45;8.10;99.90
48206;DHT22;33995;48.202;16.260;2022-11-15T12:12:35;8.10;99.90
48206;DHT22;33995;48.202;16.260;2022-11-15T12:15:45;8.10;99.90
48206;DHT22;33995;48.202;16.260;2022-11-15T12:18:25;8.10;99.90
48206;DHT22;33995;48.202;16.260;2022-11-15T12:21:18;8.00;99.90
48206;DHT22;33995;48.202;16.260;2022-11-15T12:24:02;8.10;99.90
48206;DHT22;33995;48.202;16.260;2022-11-15T12:26:57;8.10;99.90
48206;DHT22;33995;48.202;16.260;2022-11-15T12:29:41;8.00;99.90
48206;DHT22;33995;48.202;16.260;2022-11-15T12:32:36;8.10;99.90
48206;DHT22;33995;48.202;16.260;2022-11-15T12:35:40;8.10;99.90
48206;DHT22;33995;48.202;16.260;2022-11-15T12:38:12;8.00;99.90
48206;DHT22;33995;48.202;16.260;2022-11-15T12:41:18;8.10;99.90
48206;DHT22;33995;48.202;16.260;2022-11-15T12:43:49;8.10;99.90
48206;DHT22;33995;48.202;16.260;2022-11-15T12:54:54;8.20;99.90
48206;DHT22;33995;48.202;16.260;2022-11-15T12:57:36;8.30;99.90
48206;DHT22;33995;48.202;16.260;2022-11-15T13:03:17;8.20;99.90
48206;DHT22;33995;48.202;16.260;2022-11-15T13:05:52;8.20;99.90
48206;DHT22;33995;48.202;16.260;2022-11-15T13:08:49;8.20;99.90
48206;DHT22;33995;48.202;16.260;2022-11-15T13:11:48;8.20;99.90
48206;DHT22;33995;48.202;16.260;2022-11-15T13:17:28;8.20;99.90
48206;DHT22;33995;48.202;16.260;2022-11-15T13:28:33;8.20;99.90
48206;DHT22;33995;48.202;16.260;2022-11-15T13:34:01;8.30;99.90
48206;DHT22;33995;48.202;16.260;2022-11-15T13:36:52;8.30;99.90
48206;DHT22;33995;48.202;16.260;2022-11-15T13:39:33;8.40;99.90
48206;DHT22;33995;48.202;16.260;2022-11-15T13:42:15;8.40;99.90
48206;DHT22;33995;48.202;16.260;2022-11-15T13:45:02;8.40;99.90
48206;DHT22;33995;48.202;16.260;2022-11-15T13:47:31;8.30;99.90
48206;DHT22;33995;48.202;16.260;2022-11-15T13:50:00;8.30;99.90
48206;DHT22;33995;48.202;16.260;2022-11-15T13:52:38;8.30;99.90
48206;DHT22;33995;48.202;16.260;2022-11-15T13:55:19;8.30;99.90
48206;DHT22;33995;48.202;16.260;2022-11-15T13:57:53;8.30;99.90
48206;DHT22;33995;48.202;16.260;2022-11-15T14:06:12;8.40;99.90
48206;DHT22;33995;48.202;16.260;2022-11-15T14:11:31;8.30;99.90
48206;DHT22;33995;48.202;16.260;2022-11-15T14:14:10;8.40;99.90
48206;DHT22;33995;48.202;16.260;2022-11-15T14:16:50;8.30;99.90
48206;DHT22;33995;48.202;16.260;2022-11-15T14:22:17;8.50;99.90
48206;DHT22;33995;48.202;16.260;2022-11-15T14:25:20;8.40;99.90
48206;DHT22;33995;48.202;16.260;2022-11-15T14:30:54;8.30;99.90
48206;DHT22;33995;48.202;16.260;2022-11-15T14:33:32;8.40;99.90
48206;DHT22;33995;48.202;16.260;2022-11-15T14:36:19;8.40;99.90
48206;DHT22;33995;48.202;16.260;2022-11-15T14:38:52;8.40;99.90
48206;DHT22;33995;48.202;16.260;2022-11-15T14:41:27;8.40;99.90
48206;DHT22;33995;48.202;16.260;2022-11-15T14:43:57;8.40;99.90
48206;DHT22;33995;48.202;16.260;2022-11-15T14:46:40;8.30;99.90
48206;DHT22;33995;48.202;16.260;2022-11-15T14:49:10;8.40;99.90
48206;DHT22;33995;48.202;16.260;2022-11-15T14:51:53;8.40;99.90
48206;DHT22;33995;48.202;16.260;2022-11-15T14:54:25;8.40;99.90
48206;DHT22;33995;48.202;16.260;2022-11-15T14:56:53;8.40;99.90
48206;DHT22;33995;48.202;16.260;2022-11-15T14:59:25;8.40;99.90
48206;DHT22;33995;48.202;16.260;2022-11-15T15:02:16;8.50;99.90
48206;DHT22;33995;48.202;16.260;2022-11-15T15:04:48;8.40;99.90
48206;DHT22;33995;48.202;16.260;2022-11-15T15:07:17;8.50;99.90
48206;DHT22;33995;48.202;16.260;2022-11-15T15:09:48;8.50;99.90
48206;DHT22;33995;48.202;16.260;2022-11-15T15:12:21;8.50;99.90
48206;DHT22;33995;48.202;16.260;2022-11-15T15:14:59;8.50;99.90
48206;DHT22;33995;48.202;16.260;2022-11-15T15:17:32;8.50;99.90
48206;DHT22;33995;48.202;16.260;2022-11-15T15:19:59;8.50;99.90
48206;DHT22;33995;48.202;16.260;2022-11-15T15:22:29;8.40;99.90
48206;DHT22;33995;48.202;16.260;2022-11-15T15:25:01;8.50;99.90
48206;DHT22;33995;48.202;16.260;2022-11-15T15:27:30;8.50;99.90
48206;DHT22;33995;48.202;16.260;2022-11-15T15:29:59;8.50;99.90
48206;DHT22;33995;48.202;16.260;2022-11-15T15:32:40;8.50;99.90
48206;DHT22;33995;48.202;16.260;2022-11-15T15:35:22;8.60;99.90
48206;DHT22;33995;48.202;16.260;2022-11-15T15:37:51;8.50;99.90
48206;DHT22;33995;48.202;16.260;2022-11-15T15:40:21;8.50;99.90
48206;DHT22;33995;48.202;16.260;2022-11-15T15:42:50;8.50;99.90
48206;DHT22;33995;48.202;16.260;2022-11-15T15:45:40;8.50;99.90
48206;DHT22;33995;48.202;16.260;2022-11-15T15:48:14;8.50;99.90
48206;DHT22;33995;48.202;16.260;2022-11-15T15:50:43;8.60;99.90
48206;DHT22;33995;48.202;16.260;2022-11-15T15:53:13;8.60;99.90
48206;DHT22;33995;48.202;16.260;2022-11-15T15:55:43;8.60;99.90
48206;DHT22;33995;48.202;16.260;2022-11-15T15:58:14;8.60;99.90
48206;DHT22;33995;48.202;16.260;2022-11-15T16:00:42;8.60;99.90
48206;DHT22;33995;48.202;16.260;2022-11-15T16:03:11;8.60;99.90
48206;DHT22;33995;48.202;16.260;2022-11-15T16:05:43;8.60;99.90
48206;DHT22;33995;48.202;16.260;2022-11-15T16:08:25;8.60;99.90
48206;DHT22;33995;48.202;16.260;2022-11-15T16:11:15;8.60;99.90
48206;DHT22;33995;48.202;16.260;2022-11-15T16:13:42;8.60;99.90
48206;DHT22;33995;48.202;16.260;2022-11-15T16:16:15;8.70;99.90
48206;DHT22;33995;48.202;16.260;2022-11-15T16:18:44;8.70;99.90
48206;DHT22;33995;48.202;16.260;2022-11-15T16:21:15;8.70;99.90
48206;DHT22;33995;48.202;16.260;2022-11-15T16:23:44;8.70;99.90
48206;DHT22;33995;48.202;16.260;2022-11-15T16:26:27;8.70;99.90
48206;DHT22;33995;48.202;16.260;2022-11-15T16:28:58;8.70;99.90
48206;DHT22;33995;48.202;16.260;2022-11-15T16:31:27;8.70;99.90
48206;DHT22;33995;48.202;16.260;2022-11-15T16:33:57;8.70;99.90
48206;DHT22;33995;48.202;16.260;2022-11-15T16:36:28;8.70;99.90
48206;DHT22;33995;48.202;16.260;2022-11-15T16:39:00;8.60;99.90
48206;DHT22;33995;48.202;16.260;2022-11-15T16:41:32;8.70;99.90
48206;DHT22;33995;48.202;16.260;2022-11-15T16:44:02;8.60;99.90
48206;DHT22;33995;48.202;16.260;2022-11-15T16:46:31;8.70;99.90
48206;DHT22;33995;48.202;16.260;2022-11-15T16:49:01;8.60;99.90
48206;DHT22;33995;48.202;16.260;2022-11-15T16:51:28;8.60;99.90
48206;DHT22;33995;48.202;16.260;2022-11-15T16:53:57;8.60;99.90
48206;DHT22;33995;48.202;16.260;2022-11-15T16:56:30;8.60;99.90
48206;DHT22;33995;48.202;16.260;2022-11-15T16:59:00;8.60;99.90
48206;DHT22;33995;48.202;16.260;2022-11-15T17:01:34;8.50;99.90
48206;DHT22;33995;48.202;16.260;2022-11-15T17:04:03;8.60;99.90
48206;DHT22;33995;48.202;16.260;2022-11-15T17:06:42;8.60;99.90
48206;DHT22;33995;48.202;16.260;2022-11-15T17:09:21;8.60;99.90
48206;DHT22;33995;48.202;16.260;2022-11-15T17:11:58;8.50;99.90
48206;DHT22;33995;48.202;16.260;2022-11-15T17:14:29;8.60;99.90
48206;DHT22;33995;48.202;16.260;2022-11-15T17:16:57;8.60;99.90
48206;DHT22;33995;48.202;16.260;2022-11-15T17:19:25;8.60;99.90
48206;DHT22;33995;48.202;16.260;2022-11-15T17:21:57;8.60;99.90
48206;DHT22;33995;48.202;16.260;2022-11-15T17:24:28;8.70;99.90
48206;DHT22;33995;48.202;16.260;2022-11-15T17:27:02;8.70;99.90
48206;DHT22;33995;48.202;16.260;2022-11-15T17:29:29;8.70;99.90
48206;DHT22;33995;48.202;16.260;2022-11-15T17:31:59;8.60;99.90
48206;DHT22;33995;48.202;16.260;2022-11-15T17:34:31;8.60;99.90
48206;DHT22;33995;48.202;16.260;2022-11-15T17:36:59;8.60;99.90
48206;DHT22;33995;48.202;16.260;2022-11-15T17:39:27;8.60;99.90
48206;DHT22;33995;48.202;16.260;2022-11-15T17:42:00;8.70;99.90
48206;DHT22;33995;48.202;16.260;2022-11-15T17:44:44;8.70;99.90
48206;DHT22;33995;48.202;16.260;2022-11-15T17:47:12;8.70;99.90
48206;DHT22;33995;48.202;16.260;2022-11-15T17:49:45;8.60;99.90
48206;DHT22;33995;48.202;16.260;2022-11-15T17:52:28;8.60;99.90
48206;DHT22;33995;48.202;16.260;2022-11-15T17:55:01;8.70;99.90
48206;DHT22;33995;48.202;16.260;2022-11-15T17:57:34;8.70;99.90
48206;DHT22;33995;48.202;16.260;2022-11-15T18:00:07;8.60;99.90
48206;DHT22;33995;48.202;16.260;2022-11-15T18:02:37;8.60;99.90
48206;DHT22;33995;48.202;16.260;2022-11-15T18:05:09;8.70;99.90
48206;DHT22;33995;48.202;16.260;2022-11-15T18:07:41;8.70;99.90
48206;DHT22;33995;48.202;16.260;2022-11-15T18:10:18;8.70;99.90
48206;DHT22;33995;48.202;16.260;2022-11-15T18:12:50;8.60;99.90
48206;DHT22;33995;48.202;16.260;2022-11-15T18:15:23;8.60;99.90
48206;DHT22;33995;48.202;16.260;2022-11-15T18:17:53;8.60;99.90
48206;DHT22;33995;48.202;16.260;2022-11-15T18:20:27;8.70;99.90
48206;DHT22;33995;48.202;16.260;2022-11-15T18:22:59;8.70;99.90
48206;DHT22;33995;48.202;16.260;2022-11-15T18:25:29;8.60;99.90
48206;DHT22;33995;48.202;16.260;2022-11-15T18:27:59;8.70;99.90
48206;DHT22;33995;48.202;16.260;2022-11-15T18:30:28;8.60;99.90
48206;DHT22;33995;48.202;16.260;2022-11-15T18:32:59;8.60;99.90
48206;DHT22;33995;48.202;16.260;2022-11-15T18:35:28;8.70;99.90
48206;DHT22;33995;48.202;16.260;2022-11-15T18:38:10;8.70;99.90
48206;DHT22;33995;48.202;16.260;2022-11-15T18:40:44;8.70;99.90
48206;DHT22;33995;48.202;16.260;2022-11-15T18:43:17;8.70;99.90
48206;DHT22;33995;48.202;16.260;2022-11-15T18:46:06;8.70;99.90
48206;DHT22;33995;48.202;16.260;2022-11-15T18:48:49;8.70;99.90
48206;DHT22;33995;48.202;16.260;2022-11-15T18:51:23;8.70;99.90
48206;DHT22;33995;48.202;16.260;2022-11-15T18:54:08;8.60;99.90
48206;DHT22;33995;48.202;16.260;2022-11-15T18:56:41;8.60;99.90
48206;DHT22;33995;48.202;16.260;2022-11-15T18:59:14;8.60;99.90
48206;DHT22;33995;48.202;16.260;2022-11-15T19:01:47;8.60;99.90
48206;DHT22;33995;48.202;16.260;2022-11-15T19:04:20;8.60;99.90
48206;DHT22;33995;48.202;16.260;2022-11-15T19:06:59;8.60;99.90
48206;DHT22;33995;48.202;16.260;2022-11-15T19:09:35;8.60;99.90
48206;DHT22;33995;48.202;16.260;2022-11-15T19:12:09;8.60;99.90
48206;DHT22;33995;48.202;16.260;2022-11-15T19:14:43;8.60;99.90
48206;DHT22;33995;48.202;16.260;2022-11-15T19:17:15;8.60;99.90
48206;DHT22;33995;48.202;16.260;2022-11-15T19:19:45;8.60;99.90
48206;DHT22;33995;48.202;16.260;2022-11-15T19:22:25;8.60;99.90
48206;DHT22;33995;48.202;16.260;2022-11-15T19:24:57;8.60;99.90
48206;DHT22;33995;48.202;16.260;2022-11-15T19:27:27;8.50;99.90
48206;DHT22;33995;48.202;16.260;2022-11-15T19:30:09;8.50;99.90
48206;DHT22;33995;48.202;16.260;2022-11-15T19:32:45;8.60;99.90